Pagrindinis puslapis
METAR-TAF:

METAR-TAF

Oro uostai :

Foz do Iguasu, Parana, Brazilija

platuma: 25-31S, ilguma: 054-35W, Aukštis: 180 m

Dabartinis oras

Ataskaita buvo paskelbta 15 minutes, ne 05:00 UTC
Vėjas 6 kt iš Pietryčių
Temperatūra 23°C
Drėgmė 89%
Slėgis 1013 hPa
Matomumas 10 km arba daugiau
nėra debesų žemiau 1500 m ir nėra kamuolinių lietaus debesų

METAR: SBFI 210500Z 14006KT CAVOK 23/21 Q1013

Laikas: 02:15 (05:15 UTC)

Prognozė

Ataskaita buvo paskelbta 6 valandos ir 45 minutes, ne 22:30 UTC
Prognozė galioja nuo 21 metu 00 UTC su 21 metu 24 UTC
Vėjas 9 kt iš Šiaurės/Šiaurės Rytų
Matomumas 10 km arba daugiau
Išsisklaidę debesys ne aukštis 2000 ft
Tapsmas
nuo 21 metu 02 UTC su 21 metu 03 UTC
Vėjas 8 kt iš Rytų
Matomumas 10 km arba daugiau
nėra debesų žemiau 1500 m ir nėra kamuolinių lietaus debesų

TAF: SBFI 202230Z 2100/2124 03009KT 9999 SCT020 TN22/2109Z TX34/2118Z BECMG 2102/2103 10008KT CAVOK RMK PEI

Orai ataskaitas ir orų prognozės (METAR, TAF).

turimą stotys yra geltonos ir raudonos taškus žemėlapyje.

Perkelti pele per norėdami pamatyti stoties vardą.

Tada spustelėkite, norėdami matyti oro stebėjimo ir prognozės.

Norėdami pakeisti žemėlapį: spustelėkite ant žalios mygtukų su juodo kryžiaus žemyn,; žalią mygtuką su brūkšneliu, jei norite nutolinti; arba žalių rodyklių gretimoms žemėlapius.


METAR-TAF: